createdAt,value
2018-11-01T00:00:02.002Z,98558.16
2018-11-01T00:02:30.094Z,98572.38
2018-11-01T00:04:58.179Z,98572.98
2018-11-01T00:07:26.244Z,98564.31
2018-11-01T00:09:54.306Z,98561.45
2018-11-01T00:12:22.345Z,98562.07
2018-11-01T00:14:50.435Z,98563.19
2018-11-01T00:17:18.498Z,98556.70
2018-11-01T00:19:46.557Z,98560.09
2018-11-01T00:22:14.583Z,98561.52
2018-11-01T00:24:42.640Z,98566.48
2018-11-01T00:27:10.678Z,98564.11
2018-11-01T00:29:38.744Z,98560.39
2018-11-01T00:32:06.835Z,98564.98
2018-11-01T00:34:34.942Z,98575.35
2018-11-01T00:37:02.996Z,98578.14
2018-11-01T00:39:31.038Z,98573.58
2018-11-01T00:41:59.141Z,98576.36
2018-11-01T00:44:27.184Z,98578.67
2018-11-01T00:46:55.254Z,98575.78
2018-11-01T00:49:23.409Z,98580.73
2018-11-01T00:51:51.478Z,98577.84
2018-11-01T00:54:19.511Z,98582.94
2018-11-01T00:56:47.678Z,98583.55
2018-11-01T00:59:15.707Z,98579.70
2018-11-01T01:01:43.790Z,98592.69
2018-11-01T01:04:11.833Z,98589.69
2018-11-01T01:06:39.911Z,98581.50
2018-11-01T01:09:10.876Z,98576.84
2018-11-01T01:11:39.170Z,98580.44
2018-11-01T01:14:07.663Z,98583.59
2018-11-01T01:16:35.850Z,98581.55
2018-11-01T01:19:04.247Z,98587.33
2018-11-01T01:21:32.228Z,98583.23
2018-11-01T01:24:00.319Z,98583.37
2018-11-01T01:26:28.391Z,98571.10
2018-11-01T01:28:57.382Z,98565.94
2018-11-01T01:31:25.462Z,98570.38
2018-11-01T01:33:53.653Z,98574.15
2018-11-01T01:36:21.764Z,98580.87
2018-11-01T01:38:49.793Z,98577.53
2018-11-01T01:41:17.872Z,98584.29
2018-11-01T01:43:45.935Z,98601.61
2018-11-01T01:46:14.096Z,98587.55
2018-11-01T01:48:42.133Z,98563.45
2018-11-01T01:51:10.211Z,98555.30
2018-11-01T01:53:38.258Z,98566.84
2018-11-01T01:56:12.135Z,98562.86
2018-11-01T01:58:40.255Z,98561.33
2018-11-01T02:01:08.421Z,98562.41
2018-11-01T02:03:37.135Z,98556.77
2018-11-01T02:06:05.310Z,98559.55
2018-11-01T02:08:33.436Z,98561.00
2018-11-01T02:11:01.630Z,98564.59
2018-11-01T02:13:29.803Z,98562.55
2018-11-01T02:15:57.993Z,98567.98
2018-11-01T02:18:26.158Z,98546.92
2018-11-01T02:20:54.230Z,98536.94
2018-11-01T02:23:22.329Z,98542.73
2018-11-01T02:25:50.460Z,98545.01
2018-11-01T02:28:19.142Z,98536.84
2018-11-01T02:30:47.295Z,98544.92
2018-11-01T02:33:15.342Z,98534.94
2018-11-01T02:35:43.440Z,98539.04
2018-11-01T02:38:11.609Z,98537.84
2018-11-01T02:40:39.572Z,98535.30
2018-11-01T02:43:07.655Z,98540.72
2018-11-01T02:45:35.708Z,98540.84
2018-11-01T02:48:03.756Z,98541.95
2018-11-01T02:50:31.837Z,98542.91
2018-11-01T02:52:59.884Z,98539.06
2018-11-01T02:55:27.976Z,98535.66
2018-11-01T02:57:56.044Z,98543.73
2018-11-01T03:00:24.129Z,98551.45
2018-11-01T03:02:52.185Z,98553.73
2018-11-01T03:05:20.264Z,98554.70
2018-11-01T03:07:48.332Z,98560.60
2018-11-01T03:10:16.402Z,98556.77
2018-11-01T03:12:44.495Z,98562.66
2018-11-01T03:15:13.659Z,98563.16
2018-11-01T03:17:42.627Z,98560.61
2018-11-01T03:20:11.533Z,98561.23
2018-11-01T03:22:39.608Z,98559.54
2018-11-01T03:25:08.225Z,98558.81
2018-11-01T03:27:36.349Z,98555.35
2018-11-01T03:30:04.953Z,98554.63
2018-11-01T03:32:33.052Z,98553.43
2018-11-01T03:35:01.229Z,98539.00
2018-11-01T03:37:29.297Z,98539.95
2018-11-01T03:39:57.398Z,98533.84
2018-11-01T03:42:25.484Z,98528.64
2018-11-01T03:44:53.592Z,98520.36
2018-11-01T03:47:21.708Z,98508.58
2018-11-01T03:49:49.784Z,98502.94
2018-11-01T03:52:17.866Z,98493.08
2018-11-01T03:54:45.953Z,98489.59
2018-11-01T03:57:14.036Z,98477.81
2018-11-01T03:59:42.140Z,98474.31
2018-11-01T04:02:10.213Z,98477.56
2018-11-01T04:04:38.300Z,98473.72
2018-11-01T04:07:06.636Z,98467.70
2018-11-01T04:09:34.700Z,98471.80
2018-11-01T04:12:02.776Z,98471.45
2018-11-01T04:14:30.883Z,98472.91
2018-11-01T04:16:59.047Z,98472.53
2018-11-01T04:19:27.057Z,98484.09
2018-11-01T04:22:03.593Z,98484.22
2018-11-01T04:24:31.938Z,98488.78
2018-11-01T04:27:00.058Z,98492.87
2018-11-01T04:29:28.117Z,98500.81
2018-11-01T04:31:56.172Z,98505.73
2018-11-01T04:34:24.264Z,98511.14
2018-11-01T04:36:52.368Z,98513.44
2018-11-01T04:39:20.441Z,98518.38
2018-11-01T04:41:48.504Z,98519.33
2018-11-01T04:44:16.564Z,98514.17
2018-11-01T04:46:44.693Z,98507.55
2018-11-01T04:49:12.728Z,98487.50
2018-11-01T04:51:40.779Z,98484.95
2018-11-01T04:54:08.836Z,98489.89
2018-11-01T04:56:36.892Z,98483.41
2018-11-01T04:59:05.240Z,98485.70
2018-11-01T05:01:33.308Z,98485.33
2018-11-01T05:04:01.373Z,98486.30
2018-11-01T05:06:29.425Z,98484.60
2018-11-01T05:08:57.488Z,98480.76
2018-11-01T05:11:25.545Z,98482.20
2018-11-01T05:13:53.600Z,98476.58
2018-11-01T05:16:21.647Z,98472.80
2018-11-01T05:18:49.727Z,98473.77
2018-11-01T05:21:17.788Z,98475.94
2018-11-01T05:23:45.868Z,98477.01
2018-11-01T05:26:13.954Z,98475.34
2018-11-01T05:28:42.070Z,98484.22
2018-11-01T05:31:10.148Z,98492.78
2018-11-01T05:33:38.230Z,98486.27
2018-11-01T05:36:06.509Z,98483.74
2018-11-01T05:38:34.588Z,98484.13
2018-11-01T05:41:02.676Z,98486.04
2018-11-01T05:43:30.764Z,98487.83
2018-11-01T05:45:59.208Z,98476.53
2018-11-01T05:48:27.325Z,98481.94
2018-11-01T05:50:55.385Z,98484.59
2018-11-01T05:53:23.544Z,98482.92
2018-11-01T05:55:51.672Z,98475.11
2018-11-01T05:58:19.747Z,98462.49
2018-11-01T06:00:47.829Z,98462.62
2018-11-01T06:03:15.920Z,98466.23
2018-11-01T06:05:44.083Z,98463.22
2018-11-01T06:08:28.173Z,98462.02
2018-11-01T06:10:56.361Z,98457.80
2018-11-01T06:13:24.449Z,98460.94
2018-11-01T06:15:52.642Z,98463.70
2018-11-01T06:18:20.969Z,98466.95
2018-11-01T06:20:49.405Z,98471.85
2018-11-01T06:23:17.662Z,98475.13
2018-11-01T06:25:45.883Z,98481.35
2018-11-01T06:28:13.986Z,98486.76
2018-11-01T06:30:42.048Z,98490.72
2018-11-01T06:33:10.132Z,98494.34
2018-11-01T06:35:39.988Z,98500.09
2018-11-01T06:38:08.101Z,98495.05
2018-11-01T06:40:36.192Z,98488.92
2018-11-01T06:43:04.316Z,98489.39
2018-11-01T06:45:32.392Z,98490.23
2018-11-01T06:48:00.491Z,98489.39
2018-11-01T06:50:28.549Z,98493.00
2018-11-01T06:52:56.652Z,98487.84
2018-11-01T06:55:24.740Z,98500.46
2018-11-01T06:57:52.956Z,98500.08
2018-11-01T07:00:21.256Z,98503.23
2018-11-01T07:02:49.536Z,98503.23
2018-11-01T07:05:17.759Z,98504.89
2018-11-01T07:07:46.734Z,98506.34
2018-11-01T07:10:15.944Z,98508.52
2018-11-01T07:12:44.461Z,98506.34
2018-11-01T07:15:14.083Z,98506.45
2018-11-01T07:17:42.723Z,98506.45
2018-11-01T07:20:11.996Z,98503.81
2018-11-01T07:22:40.683Z,98504.64
2018-11-01T07:25:10.455Z,98508.25
2018-11-01T07:27:38.536Z,98516.18
2018-11-01T07:30:09.753Z,98516.18
2018-11-01T07:32:38.016Z,98512.69
2018-11-01T07:35:06.504Z,98510.89
2018-11-01T07:37:34.793Z,98504.29
2018-11-01T07:40:02.930Z,98507.40
2018-11-01T07:42:31.233Z,98497.21
2018-11-01T07:44:59.350Z,98495.77
2018-11-01T07:47:27.424Z,98487.84
2018-11-01T07:49:55.512Z,98482.78
2018-11-01T07:52:24.077Z,98474.51
2018-11-01T07:54:52.132Z,98466.33
2018-11-01T07:57:20.184Z,98465.27
2018-11-01T07:59:48.265Z,98459.02
2018-11-01T08:02:16.328Z,98459.27
2018-11-01T08:04:44.413Z,98454.33
2018-11-01T08:07:12.484Z,98451.56
2018-11-01T08:09:40.572Z,98447.00
2018-11-01T08:12:08.622Z,98445.20
2018-11-01T08:14:36.729Z,98447.22
2018-11-01T08:17:05.253Z,98447.60
2018-11-01T08:19:33.345Z,98437.75
2018-11-01T08:22:01.364Z,98432.81
2018-11-01T08:24:29.448Z,98436.31
2018-11-01T08:26:57.499Z,98431.97
2018-11-01T08:29:25.576Z,98429.58
2018-11-01T08:31:53.664Z,98432.56
2018-11-01T08:34:21.764Z,98429.83
2018-11-01T08:36:49.888Z,98427.86
2018-11-01T08:39:17.991Z,98434.10
2018-11-01T08:41:46.317Z,98437.64
2018-11-01T08:44:14.433Z,98435.55
2018-11-01T08:46:43.400Z,98437.38
2018-11-01T08:49:11.518Z,98434.09
2018-11-01T08:51:39.613Z,98438.19
2018-11-01T08:54:07.704Z,98434.73
2018-11-01T08:56:35.976Z,98430.66
2018-11-01T08:59:04.100Z,98439.91
2018-11-01T09:01:32.263Z,98446.16
2018-11-01T09:04:00.421Z,98449.78
2018-11-01T09:06:29.288Z,98452.05
2018-11-01T09:08:57.397Z,98449.89
2018-11-01T09:11:25.518Z,98443.03
2018-11-01T09:13:53.628Z,98437.75
2018-11-01T09:16:21.773Z,98430.77
2018-11-01T09:18:49.876Z,98431.12
2018-11-01T09:21:17.944Z,98431.84
2018-11-01T09:23:46.048Z,98434.70
2018-11-01T09:26:14.155Z,98432.56
2018-11-01T09:28:42.304Z,98443.14
2018-11-01T09:31:10.380Z,98449.41
2018-11-01T09:33:38.433Z,98450.47
2018-11-01T09:36:06.492Z,98450.34
2018-11-01T09:38:34.613Z,98455.85
2018-11-01T09:41:02.732Z,98458.02
2018-11-01T09:43:30.828Z,98455.97
2018-11-01T09:45:59.047Z,98463.05
2018-11-01T09:48:27.095Z,98463.52
2018-11-01T09:50:55.168Z,98461.67
2018-11-01T09:53:23.273Z,98460.81
2018-11-01T09:55:51.964Z,98460.42
2018-11-01T09:58:19.899Z,98456.10
2018-11-01T10:00:47.985Z,98453.91
2018-11-01T10:03:16.045Z,98452.55
2018-11-01T10:05:44.132Z,98452.19
2018-11-01T10:08:12.229Z,98458.82
2018-11-01T10:10:40.392Z,98454.92
2018-11-01T10:13:08.553Z,98452.39
2018-11-01T10:15:36.685Z,98465.11
2018-11-01T10:18:05.351Z,98472.69
2018-11-01T10:20:32.911Z,98467.59
2018-11-01T10:23:01.079Z,98471.08
2018-11-01T10:25:29.271Z,98472.00
2018-11-01T10:27:57.259Z,98468.34
2018-11-01T10:30:25.358Z,98473.62
2018-11-01T10:32:53.420Z,98468.27
2018-11-01T10:35:21.552Z,98459.43
2018-11-01T10:37:49.666Z,98458.92
2018-11-01T10:40:19.051Z,98450.23
2018-11-01T10:42:47.124Z,98454.17
2018-11-01T10:45:15.365Z,98440.06
2018-11-01T10:47:43.793Z,98426.27
2018-11-01T10:50:16.228Z,98418.14
2018-11-01T10:52:44.335Z,98413.27
2018-11-01T10:55:12.937Z,98408.27
2018-11-01T10:57:41.098Z,98406.89
2018-11-01T11:00:15.891Z,98412.97
2018-11-01T11:02:46.145Z,98408.94
2018-11-01T11:05:14.901Z,98406.86
2018-11-01T11:07:43.067Z,98400.99
2018-11-01T11:10:11.177Z,98403.25
2018-11-01T11:12:39.344Z,98405.15
2018-11-01T11:15:07.980Z,98394.81
2018-11-01T11:17:36.025Z,98387.05
2018-11-01T11:20:04.328Z,98389.69
2018-11-01T11:22:32.440Z,98386.27
2018-11-01T11:25:00.532Z,98376.36
2018-11-01T11:27:28.588Z,98387.02
2018-11-01T11:29:56.759Z,98388.09
2018-11-01T11:32:24.899Z,98395.77
2018-11-01T11:34:52.985Z,98388.37
2018-11-01T11:37:21.111Z,98393.39
2018-11-01T11:39:49.411Z,98391.59
2018-11-01T11:42:17.352Z,98393.47
2018-11-01T11:44:45.448Z,98391.86
2018-11-01T11:47:13.585Z,98389.95
2018-11-01T11:49:41.652Z,98393.31
2018-11-01T11:52:09.744Z,98393.17
2018-11-01T11:54:37.816Z,98399.52
2018-11-01T11:57:06.043Z,98402.95
2018-11-01T11:59:34.028Z,98405.95
2018-11-01T12:02:02.124Z,98413.48
2018-11-01T12:04:30.188Z,98412.16
2018-11-01T12:06:58.412Z,98412.71
2018-11-01T12:09:26.844Z,98408.95
2018-11-01T12:11:55.113Z,98410.83
2018-11-01T12:14:23.373Z,98415.52
2018-11-01T12:16:51.459Z,98411.12
2018-11-01T12:19:19.527Z,98412.31
2018-11-01T12:21:47.614Z,98413.34
2018-11-01T12:24:15.693Z,98409.22
2018-11-01T12:26:43.764Z,98411.10
2018-11-01T12:29:11.832Z,98403.83
2018-11-01T12:31:40.463Z,98405.53
2018-11-01T12:34:08.565Z,98411.88
2018-11-01T12:36:36.616Z,98397.59
2018-11-01T12:39:06.618Z,98395.97
2018-11-01T12:41:34.748Z,98394.64
2018-11-01T12:44:02.743Z,98390.02
2018-11-01T12:46:30.780Z,98384.08
2018-11-01T12:48:58.848Z,98389.25
2018-11-01T12:51:26.905Z,98392.13
2018-11-01T12:53:55.139Z,98391.13
2018-11-01T12:56:23.253Z,98397.29
2018-11-01T12:58:51.240Z,98398.47
2018-11-01T13:01:19.324Z,98400.50
2018-11-01T13:03:47.380Z,98401.68
2018-11-01T13:06:15.480Z,98399.50
2018-11-01T13:08:43.533Z,98394.88
2018-11-01T13:11:11.595Z,98396.91
2018-11-01T13:13:39.648Z,98400.39
2018-11-01T13:16:07.733Z,98400.75
2018-11-01T13:18:36.791Z,98400.75
2018-11-01T13:21:05.035Z,98397.09
2018-11-01T13:23:33.161Z,98399.27
2018-11-01T13:26:01.217Z,98402.41
2018-11-01T13:28:29.260Z,98403.74
2018-11-01T13:30:57.352Z,98405.92
2018-11-01T13:33:25.453Z,98412.41
2018-11-01T13:35:53.536Z,98417.25
2018-11-01T13:38:21.700Z,98417.25
2018-11-01T13:40:50.060Z,98417.73
2018-11-01T13:43:17.835Z,98424.38
2018-11-01T13:45:45.888Z,98424.05
2018-11-01T13:48:14.169Z,98421.88
2018-11-01T13:50:42.128Z,98428.19
2018-11-01T13:53:10.217Z,98422.87
2018-11-01T13:55:38.296Z,98426.48
2018-11-01T13:58:06.354Z,98430.14
2018-11-01T14:00:34.444Z,98437.27
2018-11-01T14:03:02.657Z,98443.44
2018-11-01T14:05:30.811Z,98439.92
2018-11-01T14:07:59.041Z,98440.92
2018-11-01T14:10:27.093Z,98442.41
2018-11-01T14:12:55.212Z,98450.01
2018-11-01T14:15:23.792Z,98446.50
2018-11-01T14:17:51.379Z,98455.95
2018-11-01T14:20:19.436Z,98460.09
2018-11-01T14:22:47.480Z,98455.25
2018-11-01T14:25:15.621Z,98459.61
2018-11-01T14:27:43.742Z,98463.38
2018-11-01T14:30:14.016Z,98468.20
2018-11-01T14:32:42.148Z,98468.84
2018-11-01T14:35:10.892Z,98462.81
2018-11-01T14:37:39.006Z,98465.99
2018-11-01T14:40:08.664Z,98466.14
2018-11-01T14:42:36.747Z,98470.60
2018-11-01T14:45:04.984Z,98466.54
2018-11-01T14:47:33.076Z,98460.05
2018-11-01T14:50:01.176Z,98463.18
2018-11-01T14:52:29.611Z,98460.67
2018-11-01T14:54:58.532Z,98458.30
2018-11-01T14:57:26.481Z,98464.25
2018-11-01T14:59:53.969Z,98457.27
2018-11-01T15:02:21.555Z,98463.20
2018-11-01T15:04:49.668Z,98468.19
2018-11-01T15:07:18.597Z,98467.96
2018-11-01T15:09:46.640Z,98468.25
2018-11-01T15:12:14.696Z,98466.08
2018-11-01T15:14:43.292Z,98462.02
2018-11-01T15:17:12.088Z,98455.52
2018-11-01T15:19:40.183Z,98456.47
2018-11-01T15:22:08.237Z,98452.78
2018-11-01T15:24:36.289Z,98456.91
2018-11-01T15:27:04.352Z,98453.69
2018-11-01T15:29:32.408Z,98452.14
2018-11-01T15:32:03.396Z,98448.81
2018-11-01T15:34:32.209Z,98451.95
2018-11-01T15:37:00.411Z,98446.41
2018-11-01T15:39:28.477Z,98443.90
2018-11-01T15:41:56.552Z,98443.56
2018-11-01T15:44:24.628Z,98440.05
2018-11-01T15:46:52.729Z,98436.08
2018-11-01T15:49:20.804Z,98433.56
2018-11-01T15:51:48.927Z,98427.91
2018-11-01T15:54:16.951Z,98429.02
2018-11-01T15:56:45.090Z,98429.30
2018-11-01T15:59:13.144Z,98431.17
2018-11-01T16:01:41.285Z,98426.15
2018-11-01T16:04:09.382Z,98421.41
2018-11-01T16:06:37.413Z,98428.05
2018-11-01T16:09:08.748Z,98429.00
2018-11-01T16:11:36.836Z,98416.39
2018-11-01T16:14:04.932Z,98411.89
2018-11-01T16:16:33.020Z,98409.23
2018-11-01T16:19:01.080Z,98408.05
2018-11-01T16:21:29.149Z,98407.20
2018-11-01T16:23:57.216Z,98402.41
2018-11-01T16:26:25.279Z,98393.93
2018-11-01T16:28:53.336Z,98391.42
2018-11-01T16:31:21.432Z,98399.90
2018-11-01T16:33:49.548Z,98400.37
2018-11-01T16:36:17.675Z,98403.88
2018-11-01T16:38:45.773Z,98401.70
2018-11-01T16:41:13.856Z,98383.60
2018-11-01T16:43:41.972Z,98380.47
2018-11-01T16:46:10.073Z,98372.84
2018-11-01T16:48:38.143Z,98377.05
2018-11-01T16:51:06.361Z,98376.42
2018-11-01T16:53:34.408Z,98377.80
2018-11-01T16:56:03.073Z,98375.23
2018-11-01T16:58:31.144Z,98389.91
2018-11-01T17:00:59.240Z,98397.44
2018-11-01T17:03:27.329Z,98400.66
2018-11-01T17:05:55.392Z,98410.84
2018-11-01T17:08:25.776Z,98410.08
2018-11-01T17:10:53.821Z,98409.64
2018-11-01T17:13:21.888Z,98412.59
2018-11-01T17:15:49.945Z,98417.25
2018-11-01T17:18:18.057Z,98422.64
2018-11-01T17:20:46.144Z,98431.91
2018-11-01T17:23:14.208Z,98436.08
2018-11-01T17:25:42.340Z,98445.45
2018-11-01T17:28:10.425Z,98445.87
2018-11-01T17:30:38.480Z,98458.02
2018-11-01T17:33:06.723Z,98460.89
2018-11-01T17:35:34.775Z,98469.76
2018-11-01T17:38:02.861Z,98479.13
2018-11-01T17:40:30.945Z,98482.20
2018-11-01T17:42:58.996Z,98490.36
2018-11-01T17:45:27.075Z,98484.78
2018-11-01T17:47:55.332Z,98491.28
2018-11-01T17:50:23.521Z,98499.97
2018-11-01T17:52:51.801Z,98496.80
2018-11-01T17:55:20.052Z,98499.67
2018-11-01T17:57:48.060Z,98489.84
2018-11-01T18:00:16.465Z,98488.04
2018-11-01T18:02:44.653Z,98487.89
2018-11-01T18:05:13.019Z,98493.72
2018-11-01T18:07:41.389Z,98492.58
2018-11-01T18:10:10.643Z,98491.11
2018-11-01T18:12:38.695Z,98486.82
2018-11-01T18:15:07.341Z,98500.00
2018-11-01T18:17:35.425Z,98501.66
2018-11-01T18:20:03.589Z,98501.52
2018-11-01T18:22:31.685Z,98492.21
2018-11-01T18:24:59.775Z,98505.36
2018-11-01T18:27:28.264Z,98503.55
2018-11-01T18:29:56.384Z,98504.40
2018-11-01T18:32:24.486Z,98500.74
2018-11-01T18:34:52.565Z,98499.56
2018-11-01T18:37:20.636Z,98502.55
2018-11-01T18:39:48.737Z,98510.90
2018-11-01T18:42:16.857Z,98510.83
2018-11-01T18:44:45.324Z,98509.57
2018-11-01T18:47:13.387Z,98501.59
2018-11-01T18:49:41.464Z,98507.06
2018-11-01T18:52:09.525Z,98509.23
2018-11-01T18:54:37.691Z,98515.52
2018-11-01T18:57:05.838Z,98514.34
2018-11-01T18:59:33.995Z,98517.66
2018-11-01T19:02:01.974Z,98522.13
2018-11-01T19:04:30.038Z,98524.23
2018-11-01T19:06:58.253Z,98523.89
2018-11-01T19:09:26.340Z,98522.67
2018-11-01T19:11:54.460Z,98518.83
2018-11-01T19:14:22.626Z,98518.16
2018-11-01T19:16:50.642Z,98519.49
2018-11-01T19:19:18.794Z,98512.33
2018-11-01T19:21:46.930Z,98515.84
2018-11-01T19:24:15.011Z,98522.00
2018-11-01T19:26:43.192Z,98523.67
2018-11-01T19:29:11.185Z,98517.50
2018-11-01T19:31:39.320Z,98527.32
2018-11-01T19:34:07.766Z,98532.78
2018-11-01T19:36:35.708Z,98526.62
2018-11-01T19:39:05.292Z,98531.56
2018-11-01T19:41:33.344Z,98532.89
2018-11-01T19:44:01.429Z,98533.41
2018-11-01T19:46:29.497Z,98539.69
2018-11-01T19:48:57.608Z,98535.36
2018-11-01T19:51:25.696Z,98527.39
2018-11-01T19:53:53.893Z,98535.98
2018-11-01T19:56:21.876Z,98532.00
2018-11-01T19:58:50.466Z,98533.47
2018-11-01T20:01:18.609Z,98542.45
2018-11-01T20:03:46.744Z,98554.88
2018-11-01T20:06:14.909Z,98566.00
2018-11-01T20:08:43.011Z,98554.66
2018-11-01T20:11:11.009Z,98553.33
2018-11-01T20:13:39.060Z,98553.14
2018-11-01T20:16:07.170Z,98556.08
2018-11-01T20:18:35.256Z,98552.02
2018-11-01T20:21:03.280Z,98551.31
2018-11-01T20:23:31.344Z,98558.58
2018-11-01T20:25:59.440Z,98562.70
2018-11-01T20:28:27.516Z,98568.30
2018-11-01T20:30:55.621Z,98571.95
2018-11-01T20:33:23.740Z,98577.41
2018-11-01T20:35:51.861Z,98575.37
2018-11-01T20:38:20.003Z,98574.86
2018-11-01T20:40:48.040Z,98577.33
2018-11-01T20:43:16.172Z,98574.41
2018-11-01T20:45:44.280Z,98578.53
2018-11-01T20:48:12.440Z,98573.84
2018-11-01T20:50:40.509Z,98570.37
2018-11-01T20:53:08.580Z,98573.98
2018-11-01T20:55:36.653Z,98579.09
2018-11-01T20:58:04.805Z,98584.05
2018-11-01T21:00:32.889Z,98585.65
2018-11-01T21:03:01.094Z,98584.33
2018-11-01T21:05:29.164Z,98587.59
2018-11-01T21:07:57.229Z,98589.58
2018-11-01T21:10:25.301Z,98594.04
2018-11-01T21:12:53.801Z,98592.86
2018-11-01T21:15:21.909Z,98588.88
2018-11-01T21:17:50.012Z,98595.98
2018-11-01T21:20:18.121Z,98597.45
2018-11-01T21:22:46.188Z,98597.59
2018-11-01T21:25:14.252Z,98597.37
2018-11-01T21:27:42.364Z,98602.67
2018-11-01T21:30:10.601Z,98610.78
2018-11-01T21:32:38.733Z,98608.13
2018-11-01T21:35:07.197Z,98608.64
2018-11-01T21:37:35.325Z,98612.25
2018-11-01T21:40:03.677Z,98608.06
2018-11-01T21:42:31.752Z,98611.91
2018-11-01T21:44:59.816Z,98614.05
2018-11-01T21:47:27.861Z,98614.19
2018-11-01T21:49:55.919Z,98613.37
2018-11-01T21:52:23.989Z,98615.66
2018-11-01T21:54:52.048Z,98618.31
2018-11-01T21:57:20.190Z,98621.45
2018-11-01T21:59:48.342Z,98627.41
2018-11-01T22:02:17.208Z,98625.71
2018-11-01T22:04:45.323Z,98626.22
2018-11-01T22:07:13.430Z,98631.16
2018-11-01T22:09:41.691Z,98628.30
2018-11-01T22:12:09.841Z,98632.28
2018-11-01T22:14:38.016Z,98632.42
2018-11-01T22:17:06.608Z,98637.84
2018-11-01T22:19:34.669Z,98635.69
2018-11-01T22:22:02.815Z,98641.00
2018-11-01T22:24:30.904Z,98636.31
2018-11-01T22:32:01.964Z,98647.45
2018-11-01T22:34:30.075Z,98646.77
2018-11-01T22:36:58.141Z,98647.23
2018-11-01T22:39:26.245Z,98655.68
2018-11-01T22:41:54.365Z,98651.84
2018-11-01T22:44:22.420Z,98653.16
2018-11-01T22:46:50.601Z,98656.80
2018-11-01T22:49:18.688Z,98654.77
2018-11-01T22:51:46.829Z,98652.25
2018-11-01T22:54:14.823Z,98654.90
2018-11-01T22:56:42.976Z,98656.84
2018-11-01T22:59:11.046Z,98658.17
2018-11-01T23:01:39.944Z,98660.48
2018-11-01T23:04:08.000Z,98665.41
2018-11-01T23:06:36.043Z,98669.05
2018-11-01T23:09:05.372Z,98665.20
2018-11-01T23:11:33.429Z,98663.52
2018-11-01T23:14:01.485Z,98670.14
2018-11-01T23:16:29.544Z,98668.48
2018-11-01T23:18:58.216Z,98669.56
2018-11-01T23:21:26.272Z,98672.70
2018-11-01T23:23:54.336Z,98670.17
2018-11-01T23:26:22.478Z,98672.32
2018-11-01T23:28:50.448Z,98678.61
2018-11-01T23:31:18.492Z,98686.20
2018-11-01T23:33:46.621Z,98692.15
2018-11-01T23:36:13.893Z,98691.77
2018-11-01T23:38:47.492Z,98690.11
2018-11-01T23:41:20.904Z,98690.11
2018-11-01T23:43:54.502Z,98696.37
2018-11-01T23:46:27.993Z,98697.35
2018-11-01T23:49:00.803Z,98693.50
2018-11-01T23:51:28.863Z,98705.58
2018-11-01T23:53:56.912Z,98703.53
2018-11-01T23:56:24.989Z,98707.98
2018-11-01T23:58:53.305Z,98707.98
